Time;durP1;ratioP1;P1;durP2;ratioP2;P2;SDS_P1;SDS_P2;PMS_P1;PMS_P2;Temp;Humidity;BMP_temperature;BMP_pressure;BME280_temperature;BME280_humidity;BME280_pressure;Samples;Min_cycle;Max_cycle;Signal;HPM_P1;HPM_P2
2023/12/08 04:57:37;;;;;;;;;;;;;;;;;;5524407;23;19971;-73
2023/12/08 05:00:05;;;;;;;;;;;;;;;;;;4996572;28;19930;-74
2023/12/08 05:02:32;;;;;;;;;;;;;;;;;;4995997;28;20298;-74
2023/12/08 05:04:59;;;;;;;;;;;;;;;;;;4995592;28;19932;-75
2023/12/08 05:07:26;;;;;;;;;;;;;;;;;;4995763;28;19930;-74
2023/12/08 05:09:52;;;;;;;;;;;;;;;;;;4995516;28;20395;-74
2023/12/08 05:12:19;;;;;;;;;;;;;;;;;;4996101;28;19933;-74
2023/12/08 05:14:46;;;;;;;;;;;;;;;;;;4995783;28;19999;-71
2023/12/08 05:17:13;;;;;;;;;;;;;;;;;;4995935;28;19933;-70
2023/12/08 05:19:40;;;;;;;;;;;;;;;;;;4995303;28;20283;-70
2023/12/08 05:22:07;;;;;;;;;;;;;;;;;;4994749;28;19925;-70
2023/12/08 05:24:34;;;;;;;;;;;;;;;;;;4995308;28;19933;-71
2023/12/08 05:27:02;;;;;;;;;;;;;;;;;;4995459;28;19926;-71
2023/12/08 05:29:29;;;;;;;;;;;;;;;;;;4995476;28;20057;-71
2023/12/08 05:31:56;;;;;;;;;;;;;;;;;;4995265;28;20375;-71
2023/12/08 05:34:23;;;;;;;;;;;;;;;;;;4995292;28;19925;-71
2023/12/08 05:36:50;;;;;;;;;;;;;;;;;;4995215;28;19926;-71
2023/12/08 05:39:17;;;;;;;;;;;;;;;;;;4994967;28;20391;-71
2023/12/08 05:41:44;;;;;;;;;;;;;;;;;;4995205;28;19925;-70
2023/12/08 05:44:10;;;;;;;;;;;;;;;;;;4995205;28;19925;-70
2023/12/08 05:46:37;;;;;;;;;;;;;;;;;;4995147;28;19933;-71
2023/12/08 05:49:04;;;;;;;;;;;;;;;;;;4994846;28;20330;-70
2023/12/08 05:51:31;;;;;;;;;;;;;;;;;;4995218;28;19925;-71
2023/12/08 05:53:58;;;;;;;;;;;;;;;;;;4995275;28;19926;-71
2023/12/08 05:56:25;;;;;;;;;;;;;;;;;;4995106;28;19926;-71
2023/12/08 05:58:52;;;;;;;;;;;;;;;;;;4994751;28;20280;-71
2023/12/08 06:01:19;;;;;;;;;;;;;;;;;;4995092;28;19926;-71
2023/12/08 06:03:46;;;;;;;;;;;;;;;;;;4994505;28;20396;-71
2023/12/08 06:06:13;;;;;;;;;;;;;;;;;;4994742;28;19933;-71
2023/12/08 06:08:40;;;;;;;;;;;;;;;;;;4994767;28;19933;-71
2023/12/08 06:11:07;;;;;;;;;;;;;;;;;;4995048;28;19926;-70
2023/12/08 06:13:34;;;;;;;;;;;;;;;;;;4994657;28;19937;-71
2023/12/08 06:16:03;;;;;;;;;;;;;;;;;;4995055;28;19973;-71
2023/12/08 06:18:30;;;;;;;;;;;;;;;;;;4995030;28;19925;-71
2023/12/08 06:20:58;;;;;;;;;;;;;;;;;;4994912;28;19926;-71
2023/12/08 06:23:24;;;;;;;;;;;;;;;;;;4994916;28;19925;-71
2023/12/08 06:25:51;;;;;;;;;;;;;;;;;;4994972;28;19925;-71
2023/12/08 06:28:18;;;;;;;;;;;;;;;;;;4995313;28;19926;-72
2023/12/08 06:30:45;;;;;;;;;;;;;;;;;;4994837;28;19925;-71
2023/12/08 06:33:12;;;;;;;;;;;;;;;;;;4994198;28;20402;-71
2023/12/08 06:35:39;;;;;;;;;;;;;;;;;;4994741;28;19933;-71
2023/12/08 06:38:06;;;;;;;;;;;;;;;;;;4995230;28;19930;-71
2023/12/08 06:40:33;;;;;;;;;;;;;;;;;;4994532;28;19930;-71
2023/12/08 06:43:00;;;;;;;;;;;;;;;;;;4994528;28;19926;-71
2023/12/08 06:45:26;;;;;;;;;;;;;;;;;;4994456;28;19949;-71
2023/12/08 06:47:53;;;;;;;;;;;;;;;;;;4994326;28;19929;-71
2023/12/08 06:50:20;;;;;;;;;;;;;;;;;;4994086;28;20379;-71
2023/12/08 06:52:51;;;;;;;;;;;;;;;;;;4995141;28;19926;-71
2023/12/08 06:55:18;;;;;;;;;;;;;;;;;;4994391;28;19926;-71
2023/12/08 06:57:44;;;;;;;;;;;;;;;;;;4993782;28;20395;-71
2023/12/08 07:00:11;;;;;;;;;;;;;;;;;;4994321;28;19933;-71
2023/12/08 07:02:38;;;;;;;;;;;;;;;;;;4994182;28;19925;-71
2023/12/08 07:05:05;;;;;;;;;;;;;;;;;;4994254;28;19933;-71
2023/12/08 07:07:32;;;;;;;;;;;;;;;;;;4994152;28;19930;-71
2023/12/08 07:09:59;;;;;;;;;;;;;;;;;;4994241;28;19926;-71
2023/12/08 07:12:26;;;;;;;;;;;;;;;;;;4994288;28;20403;-73
2023/12/08 07:14:53;;;;;;;;;;;;;;;;;;4994660;28;19930;-74
2023/12/08 07:17:20;;;;;;;;;;;;;;;;;;4993983;28;19926;-74
2023/12/08 07:19:47;;;;;;;;;;;;;;;;;;4993809;28;19925;-73
2023/12/08 07:22:14;;;;;;;;;;;;;;;;;;4994052;28;19933;-74
2023/12/08 07:24:41;;;;;;;;;;;;;;;;;;4994111;28;19932;-73
2023/12/08 07:27:08;;;;;;;;;;;;;;;;;;4994030;28;19977;-74
2023/12/08 07:29:35;;;;;;;;;;;;;;;;;;4994051;28;19934;-74
2023/12/08 07:32:03;;;;;;;;;;;;;;;;;;4994299;28;19933;-74
2023/12/08 07:34:30;;;;;;;;;;;;;;;;;;4994187;28;19926;-74
2023/12/08 07:36:57;;;;;;;;;;;;;;;;;;4994147;28;19936;-73
2023/12/08 07:39:24;;;;;;;;;;;;;;;;;;4994265;28;19926;-72
2023/12/08 07:41:51;;;;;;;;;;;;;;;;;;4994285;28;19933;-71
2023/12/08 07:44:17;;;;;;;;;;;;;;;;;;4993904;28;19992;-71
2023/12/08 07:46:44;;;;;;;;;;;;;;;;;;4997057;28;19925;-71
2023/12/08 07:49:11;;;;;;;;;;;;;;;;;;4997369;28;20318;-71
2023/12/08 07:51:38;;;;;;;;;;;;;;;;;;4997961;28;19926;-74
2023/12/08 07:54:05;;;;;;;;;;;;;;;;;;4997332;28;20314;-71
2023/12/08 07:56:33;;;;;;;;;;;;;;;;;;4997477;28;19926;-72
2023/12/08 08:01:36;;;;;;;;;;;;;;;;;;5220256;23;19930;-73
2023/12/08 10:45:03;;;;;;;;;;;;;;;;;;5600946;23;20359;-74
2023/12/08 10:47:30;;;;;;;;;;;;;;;;;;5014603;28;19925;-74
2023/12/08 10:49:57;;;;;;;;;;;;;;;;;;5013751;28;20394;-74
2023/12/08 10:52:23;;;;;;;;;;;;;;;;;;5014631;28;19925;-75
2023/12/08 10:54:50;;;;;;;;;;;;;;;;;;5013932;28;20371;-74
2023/12/08 10:57:17;;;;;;;;;;;;;;;;;;5013977;28;19932;-74
2023/12/08 10:59:45;;;;;;;;;;;;;;;;;;5013997;28;19933;-74
2023/12/08 11:02:12;;;;;;;;;;;;;;;;;;5013533;28;20275;-74
2023/12/08 11:04:39;;;;;;;;;;;;;;;;;;5014208;28;19925;-73
2023/12/08 11:07:05;;;;;;;;;;;;;;;;;;5013754;28;20382;-74
2023/12/08 11:09:32;;;;;;;;;;;;;;;;;;5014063;28;19925;-74
2023/12/08 11:12:03;;;;;;;;;;;;;;;;;;5014104;28;19925;-75
2023/12/08 11:14:29;;;;;;;;;;;;;;;;;;5013849;28;19933;-74
2023/12/08 11:16:57;;;;;;;;;;;;;;;;;;5014078;28;19925;-74
2023/12/08 11:19:24;;;;;;;;;;;;;;;;;;5014387;28;19925;-75
2023/12/08 11:21:51;;;;;;;;;;;;;;;;;;5017372;28;20286;-75
2023/12/08 11:24:19;;;;;;;;;;;;;;;;;;5017755;28;20404;-76
2023/12/08 11:26:46;;;;;;;;;;;;;;;;;;5018202;28;19936;-75
2023/12/08 11:29:13;;;;;;;;;;;;;;;;;;5018066;28;19926;-75
2023/12/08 11:31:40;;;;;;;;;;;;;;;;;;5017858;28;19926;-75
2023/12/08 11:34:07;;;;;;;;;;;;;;;;;;5018240;28;19932;-74
2023/12/08 11:36:34;;;;;;;;;;;;;;;;;;5017875;28;19926;-75
2023/12/08 11:39:01;;;;;;;;;;;;;;;;;;5017819;28;19926;-75
2023/12/08 11:41:28;;;;;;;;;;;;;;;;;;5017716;28;19925;-76
2023/12/08 11:43:55;;;;;;;;;;;;;;;;;;5020504;28;19925;-75
2023/12/08 11:46:22;;;;;;;;;;;;;;;;;;5034208;28;19972;-75
2023/12/08 11:48:49;;;;;;;;;;;;;;;;;;5033198;28;20287;-75
2023/12/08 11:51:16;;;;;;;;;;;;;;;;;;5017794;28;19930;-75
2023/12/08 11:53:43;;;;;;;;;;;;;;;;;;5017275;28;20294;-75
2023/12/08 11:56:10;;;;;;;;;;;;;;;;;;5018370;28;19926;-74
2023/12/08 11:58:37;;;;;;;;;;;;;;;;;;5017401;28;19976;-73
2023/12/08 12:01:05;;;;;;;;;;;;;;;;;;5017181;28;19930;-75
2023/12/08 12:03:32;;;;;;;;;;;;;;;;;;5017416;28;19925;-74
2023/12/08 12:06:01;;;;;;;;;;;;;;;;;;5017115;28;19925;-75
2023/12/08 12:08:28;;;;;;;;;;;;;;;;;;5017109;28;19926;-74
2023/12/08 12:10:55;;;;;;;;;;;;;;;;;;5018180;28;19932;-74
2023/12/08 12:13:22;;;;;;;;;;;;;;;;;;5017497;28;19961;-74
2023/12/08 12:15:49;;;;;;;;;;;;;;;;;;5017033;28;19925;-75
2023/12/08 12:18:16;;;;;;;;;;;;;;;;;;5017221;28;19929;-74
2023/12/08 12:20:43;;;;;;;;;;;;;;;;;;5017689;28;19926;-75
2023/12/08 12:23:11;;;;;;;;;;;;;;;;;;5016654;28;20397;-72
2023/12/08 12:25:38;;;;;;;;;;;;;;;;;;5016626;28;19925;-72
2023/12/08 12:28:04;;;;;;;;;;;;;;;;;;5016675;28;19929;-72
2023/12/08 12:30:32;;;;;;;;;;;;;;;;;;5016192;28;20390;-72
2023/12/08 12:32:59;;;;;;;;;;;;;;;;;;5016311;28;19929;-72
2023/12/08 12:35:26;;;;;;;;;;;;;;;;;;5016437;28;19960;-72
2023/12/08 12:37:53;;;;;;;;;;;;;;;;;;5016344;28;19949;-72
2023/12/08 12:40:19;;;;;;;;;;;;;;;;;;5017407;28;19933;-72
2023/12/08 12:42:46;;;;;;;;;;;;;;;;;;5015948;28;19933;-72
2023/12/08 12:45:13;;;;;;;;;;;;;;;;;;5015842;28;19926;-72
2023/12/08 12:47:40;;;;;;;;;;;;;;;;;;5016016;28;19926;-72
2023/12/08 12:50:08;;;;;;;;;;;;;;;;;;5015788;28;19925;-72
2023/12/08 12:52:36;;;;;;;;;;;;;;;;;;5015897;28;19925;-72
2023/12/08 12:55:03;;;;;;;;;;;;;;;;;;5015377;28;19925;-72
2023/12/08 12:57:30;;;;;;;;;;;;;;;;;;5015835;28;19933;-71
2023/12/08 12:59:57;;;;;;;;;;;;;;;;;;5017388;28;19925;-70
2023/12/08 13:02:24;;;;;;;;;;;;;;;;;;5020047;28;19926;-71
2023/12/08 13:04:51;;;;;;;;;;;;;;;;;;5019184;28;19937;-70
2023/12/08 13:07:18;;;;;;;;;;;;;;;;;;5020038;28;19929;-71
2023/12/08 13:09:45;;;;;;;;;;;;;;;;;;5019710;28;19925;-70
2023/12/08 13:12:12;;;;;;;;;;;;;;;;;;5019400;28;19925;-71
2023/12/08 13:14:39;;;;;;;;;;;;;;;;;;5018216;28;19936;-71
2023/12/08 13:17:07;;;;;;;;;;;;;;;;;;5019057;28;19926;-71
2023/12/08 13:19:34;;;;;;;;;;;;;;;;;;5017349;28;19925;-71
2023/12/08 13:22:01;;;;;;;;;;;;;;;;;;5017129;28;20298;-72
2023/12/08 13:24:28;;;;;;;;;;;;;;;;;;5016638;28;19926;-72
2023/12/08 13:26:54;;;;;;;;;;;;;;;;;;5016524;28;19933;-72
2023/12/08 13:29:21;;;;;;;;;;;;;;;;;;5015223;28;19926;-72
2023/12/08 13:31:48;;;;;;;;;;;;;;;;;;5015165;28;19926;-72
2023/12/08 13:34:15;;;;;;;;;;;;;;;;;;5014921;28;19932;-72
2023/12/08 13:36:42;;;;;;;;;;;;;;;;;;5014971;28;19933;-72
2023/12/08 13:39:10;;;;;;;;;;;;;;;;;;5014912;28;20016;-72
2023/12/08 13:41:37;;;;;;;;;;;;;;;;;;5014950;28;20326;-72
2023/12/08 13:44:04;;;;;;;;;;;;;;;;;;5014602;28;19930;-72
2023/12/08 13:46:31;;;;;;;;;;;;;;;;;;5014487;28;20401;-72
2023/12/08 13:48:58;;;;;;;;;;;;;;;;;;5015021;28;19925;-71
2023/12/08 13:51:25;;;;;;;;;;;;;;;;;;5014438;28;20410;-71
2023/12/08 13:53:52;;;;;;;;;;;;;;;;;;5014516;28;20294;-71
2023/12/08 13:56:19;;;;;;;;;;;;;;;;;;5014690;28;19933;-71
2023/12/08 13:58:46;;;;;;;;;;;;;;;;;;5014725;28;19932;-72
2023/12/08 14:01:14;;;;;;;;;;;;;;;;;;5014654;28;19925;-71
2023/12/08 14:03:40;;;;;;;;;;;;;;;;;;5014318;28;19980;-71
2023/12/08 14:06:07;;;;;;;;;;;;;;;;;;5014624;28;19929;-73
2023/12/08 14:08:34;;;;;;;;;;;;;;;;;;5014174;28;20382;-72
2023/12/08 14:11:01;;;;;;;;;;;;;;;;;;5014526;28;19930;-72
2023/12/08 14:13:28;;;;;;;;;;;;;;;;;;5014139;28;20382;-72
2023/12/08 14:15:55;;;;;;;;;;;;;;;;;;5014359;28;19926;-72
2023/12/08 14:18:22;;;;;;;;;;;;;;;;;;5014574;28;19926;-71
2023/12/08 14:20:49;;;;;;;;;;;;;;;;;;5014479;28;19948;-71
2023/12/08 14:23:16;;;;;;;;;;;;;;;;;;5014383;28;19925;-71
2023/12/08 14:25:43;;;;;;;;;;;;;;;;;;5014340;28;19933;-71
2023/12/08 14:28:09;;;;;;;;;;;;;;;;;;5014086;28;20328;-71
2023/12/08 14:30:36;;;;;;;;;;;;;;;;;;5014418;28;19933;-72
2023/12/08 14:33:03;;;;;;;;;;;;;;;;;;5014441;28;19925;-72
2023/12/08 14:35:30;;;;;;;;;;;;;;;;;;5014228;28;19974;-72
2023/12/08 14:37:57;;;;;;;;;;;;;;;;;;5014366;28;19933;-72
2023/12/08 14:40:24;;;;;;;;;;;;;;;;;;5014360;28;19925;-72
2023/12/08 14:42:51;;;;;;;;;;;;;;;;;;5014205;28;19949;-72
2023/12/08 14:45:18;;;;;;;;;;;;;;;;;;5014097;28;19936;-72
2023/12/08 14:47:45;;;;;;;;;;;;;;;;;;5014499;28;19925;-72
2023/12/08 14:50:12;;;;;;;;;;;;;;;;;;5014293;28;19926;-73
2023/12/08 14:52:39;;;;;;;;;;;;;;;;;;5014332;28;19925;-72
2023/12/08 14:55:06;;;;;;;;;;;;;;;;;;5014419;28;19953;-72
2023/12/08 14:57:33;;;;;;;;;;;;;;;;;;5017969;28;20298;-72
2023/12/08 15:00:00;;;;;;;;;;;;;;;;;;5018150;28;19933;-73
2023/12/08 15:02:27;;;;;;;;;;;;;;;;;;5018097;28;19932;-73
2023/12/08 15:04:54;;;;;;;;;;;;;;;;;;5018073;28;19925;-73
2023/12/08 15:07:21;;;;;;;;;;;;;;;;;;5017702;28;20409;-73
2023/12/08 15:09:47;;;;;;;;;;;;;;;;;;5018524;28;19929;-71
2023/12/08 15:12:14;;;;;;;;;;;;;;;;;;5017596;28;19926;-71
2023/12/08 15:14:41;;;;;;;;;;;;;;;;;;5017816;28;19926;-71
2023/12/08 15:17:08;;;;;;;;;;;;;;;;;;5017871;28;19929;-71
2023/12/08 15:19:35;;;;;;;;;;;;;;;;;;5017677;28;20306;-72
2023/12/08 15:22:02;;;;;;;;;;;;;;;;;;5020595;28;19932;-70
2023/12/08 15:24:29;;;;;;;;;;;;;;;;;;5022747;28;19932;-70
2023/12/08 15:26:56;;;;;;;;;;;;;;;;;;5021978;28;19925;-70
2023/12/08 15:29:23;;;;;;;;;;;;;;;;;;5017670;28;19925;-69
2023/12/08 15:31:50;;;;;;;;;;;;;;;;;;5017115;28;19933;-70
2023/12/08 15:34:17;;;;;;;;;;;;;;;;;;5017315;28;19929;-70
2023/12/08 15:36:44;;;;;;;;;;;;;;;;;;5017524;28;19925;-71
2023/12/08 15:39:11;;;;;;;;;;;;;;;;;;5017362;28;20293;-71
2023/12/08 15:41:38;;;;;;;;;;;;;;;;;;5017574;28;19929;-71
2023/12/08 15:44:05;;;;;;;;;;;;;;;;;;5018153;28;19929;-71
2023/12/08 15:46:32;;;;;;;;;;;;;;;;;;5017567;28;19932;-71
2023/12/08 15:48:59;;;;;;;;;;;;;;;;;;5017584;28;19929;-71
2023/12/08 15:51:26;;;;;;;;;;;;;;;;;;5016866;28;20322;-71
2023/12/08 15:53:53;;;;;;;;;;;;;;;;;;5017045;28;19926;-71
2023/12/08 15:56:19;;;;;;;;;;;;;;;;;;5016997;28;19925;-71
2023/12/08 15:58:46;;;;;;;;;;;;;;;;;;5016779;28;20303;-71
2023/12/08 16:01:13;;;;;;;;;;;;;;;;;;5017071;28;19925;-71
2023/12/08 16:03:40;;;;;;;;;;;;;;;;;;5016872;28;19933;-71
2023/12/08 16:06:07;;;;;;;;;;;;;;;;;;5016511;28;19925;-71
2023/12/08 16:08:34;;;;;;;;;;;;;;;;;;5017498;28;19925;-71
2023/12/08 16:11:01;;;;;;;;;;;;;;;;;;5016277;28;20318;-71
2023/12/08 16:13:28;;;;;;;;;;;;;;;;;;5016723;28;19929;-71
2023/12/08 16:15:55;;;;;;;;;;;;;;;;;;5016514;28;19926;-71
2023/12/08 16:18:22;;;;;;;;;;;;;;;;;;5016740;28;19932;-71
2023/12/08 16:20:49;;;;;;;;;;;;;;;;;;5016638;28;19972;-72
2023/12/08 16:23:16;;;;;;;;;;;;;;;;;;5016494;28;19926;-72
2023/12/08 16:25:43;;;;;;;;;;;;;;;;;;5016307;28;20543;-72
2023/12/08 16:28:10;;;;;;;;;;;;;;;;;;5016565;28;19925;-72
2023/12/08 16:30:37;;;;;;;;;;;;;;;;;;5016074;28;20398;-72
2023/12/08 16:33:03;;;;;;;;;;;;;;;;;;5016674;28;19929;-72
2023/12/08 16:35:30;;;;;;;;;;;;;;;;;;5016110;28;19940;-72
2023/12/08 16:37:57;;;;;;;;;;;;;;;;;;5016476;28;20342;-72
2023/12/08 16:40:24;;;;;;;;;;;;;;;;;;5016275;28;19933;-72
2023/12/08 16:42:51;;;;;;;;;;;;;;;;;;5016128;28;20294;-72
2023/12/08 16:45:18;;;;;;;;;;;;;;;;;;5016335;28;19925;-73
2023/12/08 16:47:45;;;;;;;;;;;;;;;;;;5016164;28;19932;-71
2023/12/08 16:50:13;;;;;;;;;;;;;;;;;;5016002;28;19977;-71
2023/12/08 16:52:39;;;;;;;;;;;;;;;;;;5016275;28;19975;-72
2023/12/08 16:55:06;;;;;;;;;;;;;;;;;;5015662;28;20387;-70
2023/12/08 16:57:33;;;;;;;;;;;;;;;;;;5015998;28;19933;-71
2023/12/08 17:00:00;;;;;;;;;;;;;;;;;;5015865;28;19926;-71
2023/12/08 17:02:27;;;;;;;;;;;;;;;;;;5015902;28;19925;-72
2023/12/08 17:04:54;;;;;;;;;;;;;;;;;;5015614;28;19925;-71
2023/12/08 17:07:21;;;;;;;;;;;;;;;;;;5015725;28;19925;-71
2023/12/08 17:09:48;;;;;;;;;;;;;;;;;;5015712;28;19932;-71
2023/12/08 17:12:15;;;;;;;;;;;;;;;;;;5015627;28;19925;-71
2023/12/08 17:14:42;;;;;;;;;;;;;;;;;;5016191;28;20290;-72
2023/12/08 17:17:08;;;;;;;;;;;;;;;;;;5015316;28;19925;-72
2023/12/08 17:19:35;;;;;;;;;;;;;;;;;;5015579;28;19929;-74
2023/12/08 17:22:02;;;;;;;;;;;;;;;;;;5015149;28;20291;-74
2023/12/08 17:24:29;;;;;;;;;;;;;;;;;;5015347;28;19937;-74
2023/12/08 17:26:56;;;;;;;;;;;;;;;;;;5015543;28;19926;-74
2023/12/08 17:29:23;;;;;;;;;;;;;;;;;;5015622;28;19925;-74
2023/12/08 17:31:50;;;;;;;;;;;;;;;;;;5016267;28;19932;-75
2023/12/08 17:34:17;;;;;;;;;;;;;;;;;;5015580;28;19925;-75
2023/12/08 17:36:44;;;;;;;;;;;;;;;;;;5015729;28;19926;-76
2023/12/08 17:39:11;;;;;;;;;;;;;;;;;;5015795;28;19932;-76
2023/12/08 17:41:38;;;;;;;;;;;;;;;;;;5015304;28;20411;-75
2023/12/08 17:44:05;;;;;;;;;;;;;;;;;;5015534;28;19933;-74
2023/12/08 17:46:32;;;;;;;;;;;;;;;;;;5015253;28;19925;-76
2023/12/08 17:49:00;;;;;;;;;;;;;;;;;;5014830;28;21285;-76
2023/12/08 17:51:27;;;;;;;;;;;;;;;;;;5016016;28;19932;-76
2023/12/08 17:53:54;;;;;;;;;;;;;;;;;;5015271;28;20305;-74
2023/12/08 17:56:21;;;;;;;;;;;;;;;;;;5015549;28;19932;-72
2023/12/08 17:58:48;;;;;;;;;;;;;;;;;;5014477;28;19926;-72
2023/12/08 18:01:15;;;;;;;;;;;;;;;;;;5014937;28;19932;-72
2023/12/08 18:03:42;;;;;;;;;;;;;;;;;;5014579;28;19926;-72
2023/12/08 18:06:09;;;;;;;;;;;;;;;;;;5014765;28;19932;-72
2023/12/08 18:08:38;;;;;;;;;;;;;;;;;;5014858;28;19929;-71
2023/12/08 18:11:04;;;;;;;;;;;;;;;;;;5014658;28;20026;-71
2023/12/08 18:13:31;;;;;;;;;;;;;;;;;;5014690;28;20290;-73
2023/12/08 18:15:58;;;;;;;;;;;;;;;;;;5014806;28;19932;-72
2023/12/08 18:18:25;;;;;;;;;;;;;;;;;;5014522;28;20396;-71
2023/12/08 18:20:52;;;;;;;;;;;;;;;;;;5014578;28;19932;-72
2023/12/08 18:23:19;;;;;;;;;;;;;;;;;;5014616;28;19932;-72
2023/12/08 18:25:46;;;;;;;;;;;;;;;;;;5014532;28;19932;-72
2023/12/08 18:28:13;;;;;;;;;;;;;;;;;;5014467;28;19933;-71
2023/12/08 18:30:40;;;;;;;;;;;;;;;;;;5014345;28;19937;-71
2023/12/08 18:33:07;;;;;;;;;;;;;;;;;;5014160;28;20306;-71
2023/12/08 18:35:34;;;;;;;;;;;;;;;;;;5014950;28;19932;-71
2023/12/08 18:38:01;;;;;;;;;;;;;;;;;;5014070;28;20490;-71
2023/12/08 18:40:30;;;;;;;;;;;;;;;;;;5014514;28;19932;-71
2023/12/08 18:42:57;;;;;;;;;;;;;;;;;;5014672;28;19972;-72
2023/12/08 18:45:23;;;;;;;;;;;;;;;;;;5014100;28;19933;-72
2023/12/08 18:47:50;;;;;;;;;;;;;;;;;;5014432;28;19930;-72
2023/12/08 18:50:17;;;;;;;;;;;;;;;;;;5014648;28;19933;-72
2023/12/08 18:52:45;;;;;;;;;;;;;;;;;;5014545;28;20394;-72
2023/12/08 18:55:12;;;;;;;;;;;;;;;;;;5014602;28;19933;-73
2023/12/08 18:57:39;;;;;;;;;;;;;;;;;;5014544;28;19933;-71
2023/12/08 19:00:08;;;;;;;;;;;;;;;;;;5014332;28;19933;-70
2023/12/08 19:02:36;;;;;;;;;;;;;;;;;;5014035;28;20470;-70
2023/12/08 19:05:03;;;;;;;;;;;;;;;;;;5014014;28;20280;-71
2023/12/08 19:07:30;;;;;;;;;;;;;;;;;;5014308;28;19964;-71
2023/12/08 19:09:56;;;;;;;;;;;;;;;;;;5014231;28;19932;-71
2023/12/08 19:12:23;;;;;;;;;;;;;;;;;;5014122;28;19926;-71
2023/12/08 19:14:51;;;;;;;;;;;;;;;;;;5014137;28;19929;-71
2023/12/08 19:17:19;;;;;;;;;;;;;;;;;;5013797;28;19930;-72
2023/12/08 19:19:46;;;;;;;;;;;;;;;;;;5014171;28;20012;-72
2023/12/08 19:22:13;;;;;;;;;;;;;;;;;;5014154;28;19926;-72
2023/12/08 19:24:40;;;;;;;;;;;;;;;;;;5015346;28;19948;-73
2023/12/08 19:27:07;;;;;;;;;;;;;;;;;;5015215;28;19926;-72
2023/12/08 19:29:34;;;;;;;;;;;;;;;;;;5015229;28;19926;-72
2023/12/08 19:32:01;;;;;;;;;;;;;;;;;;5014962;28;19953;-73
2023/12/08 19:34:28;;;;;;;;;;;;;;;;;;5014093;28;19926;-73
2023/12/08 19:36:54;;;;;;;;;;;;;;;;;;5013975;28;20299;-72
2023/12/08 19:39:21;;;;;;;;;;;;;;;;;;5014425;28;19925;-72
2023/12/08 19:41:48;;;;;;;;;;;;;;;;;;5015873;28;19926;-71
2023/12/08 19:44:16;;;;;;;;;;;;;;;;;;5017870;28;19933;-70
2023/12/08 19:46:43;;;;;;;;;;;;;;;;;;5017562;28;19929;-70
2023/12/08 19:49:11;;;;;;;;;;;;;;;;;;5017599;28;19932;-70
2023/12/08 19:51:38;;;;;;;;;;;;;;;;;;5017749;28;19979;-71
2023/12/08 19:54:07;;;;;;;;;;;;;;;;;;5017875;28;19948;-71
2023/12/08 19:56:34;;;;;;;;;;;;;;;;;;5017585;28;19997;-72
2023/12/08 19:59:01;;;;;;;;;;;;;;;;;;5017433;28;19937;-71
2023/12/08 20:01:28;;;;;;;;;;;;;;;;;;5017057;28;20383;-72
2023/12/08 20:03:56;;;;;;;;;;;;;;;;;;5017285;28;19926;-73
2023/12/08 20:06:22;;;;;;;;;;;;;;;;;;5017425;28;19926;-73
2023/12/08 20:08:49;;;;;;;;;;;;;;;;;;5017519;28;19932;-72
2023/12/08 20:11:16;;;;;;;;;;;;;;;;;;5017167;28;19925;-72
2023/12/08 20:13:43;;;;;;;;;;;;;;;;;;5017179;28;19926;-72
2023/12/08 20:16:10;;;;;;;;;;;;;;;;;;5017002;28;19925;-72
2023/12/08 20:18:37;;;;;;;;;;;;;;;;;;5017097;28;19945;-73
2023/12/08 20:21:04;;;;;;;;;;;;;;;;;;5017071;28;19933;-72
2023/12/08 20:23:34;;;;;;;;;;;;;;;;;;5017109;28;19929;-74
2023/12/08 20:26:01;;;;;;;;;;;;;;;;;;5016942;28;19952;-72
2023/12/08 20:28:28;;;;;;;;;;;;;;;;;;5016764;28;19926;-72
2023/12/08 20:30:56;;;;;;;;;;;;;;;;;;5017055;28;19926;-73
2023/12/08 20:33:23;;;;;;;;;;;;;;;;;;5017170;28;19925;-72
2023/12/08 20:35:50;;;;;;;;;;;;;;;;;;5016617;28;19984;-72
2023/12/08 20:38:17;;;;;;;;;;;;;;;;;;5016922;28;19930;-72
2023/12/08 20:40:46;;;;;;;;;;;;;;;;;;5016510;28;19925;-72
2023/12/08 20:43:14;;;;;;;;;;;;;;;;;;5016781;28;19988;-72
2023/12/08 20:45:42;;;;;;;;;;;;;;;;;;5016183;28;19996;-72
2023/12/08 20:48:09;;;;;;;;;;;;;;;;;;5016222;28;19979;-71
2023/12/08 20:50:36;;;;;;;;;;;;;;;;;;5016474;28;19925;-73
2023/12/08 20:53:03;;;;;;;;;;;;;;;;;;5016237;28;19926;-72
2023/12/08 20:55:30;;;;;;;;;;;;;;;;;;5016553;28;19975;-72
2023/12/08 20:57:56;;;;;;;;;;;;;;;;;;5016856;28;19925;-72
2023/12/08 21:00:23;;;;;;;;;;;;;;;;;;5016583;28;19925;-73
2023/12/08 21:02:50;;;;;;;;;;;;;;;;;;5016549;28;20284;-72
2023/12/08 21:05:17;;;;;;;;;;;;;;;;;;5016235;28;19933;-72
2023/12/08 21:07:44;;;;;;;;;;;;;;;;;;5016142;28;19925;-71
2023/12/08 21:10:11;;;;;;;;;;;;;;;;;;5016078;28;19933;-72
2023/12/08 21:12:38;;;;;;;;;;;;;;;;;;5016106;28;19925;-71
2023/12/08 21:15:06;;;;;;;;;;;;;;;;;;5015598;28;19926;-71
2023/12/08 21:17:33;;;;;;;;;;;;;;;;;;5016285;28;19925;-72
2023/12/08 21:20:00;;;;;;;;;;;;;;;;;;5015837;28;20387;-71
2023/12/08 21:22:27;;;;;;;;;;;;;;;;;;5016534;28;19933;-73
2023/12/08 21:24:54;;;;;;;;;;;;;;;;;;5020763;28;19964;-71
2023/12/08 21:27:21;;;;;;;;;;;;;;;;;;5016353;28;19933;-71
2023/12/08 21:29:50;;;;;;;;;;;;;;;;;;5015839;28;19925;-72
2023/12/08 21:32:17;;;;;;;;;;;;;;;;;;5016104;28;20020;-70
2023/12/08 21:34:44;;;;;;;;;;;;;;;;;;5015359;28;19933;-71
2023/12/08 21:37:11;;;;;;;;;;;;;;;;;;5015702;28;19932;-72
2023/12/08 21:39:38;;;;;;;;;;;;;;;;;;5015658;28;19925;-72
2023/12/08 21:42:05;;;;;;;;;;;;;;;;;;5015417;28;19932;-72
2023/12/08 21:44:32;;;;;;;;;;;;;;;;;;5015242;28;19936;-72
2023/12/08 21:46:59;;;;;;;;;;;;;;;;;;5015127;28;20012;-72
2023/12/08 21:49:28;;;;;;;;;;;;;;;;;;5015465;28;19932;-72
2023/12/08 21:51:55;;;;;;;;;;;;;;;;;;5016195;28;19961;-72
2023/12/08 21:54:22;;;;;;;;;;;;;;;;;;5015373;28;19930;-72
2023/12/08 21:56:49;;;;;;;;;;;;;;;;;;5015174;28;19926;-72
2023/12/08 21:59:16;;;;;;;;;;;;;;;;;;5015229;28;19932;-71
2023/12/08 22:01:44;;;;;;;;;;;;;;;;;;5015190;28;19929;-71
2023/12/08 22:04:11;;;;;;;;;;;;;;;;;;5014927;28;19929;-72
2023/12/08 22:06:38;;;;;;;;;;;;;;;;;;5015058;28;20044;-71
2023/12/08 22:09:06;;;;;;;;;;;;;;;;;;5015155;28;20295;-72
2023/12/08 22:11:33;;;;;;;;;;;;;;;;;;5014980;28;19957;-72
2023/12/08 22:13:59;;;;;;;;;;;;;;;;;;5014893;28;19933;-73
2023/12/08 22:16:27;;;;;;;;;;;;;;;;;;5014791;28;19925;-72
2023/12/08 22:18:54;;;;;;;;;;;;;;;;;;5014847;28;19973;-72
2023/12/08 22:21:21;;;;;;;;;;;;;;;;;;5014959;28;19947;-72
2023/12/08 22:23:48;;;;;;;;;;;;;;;;;;5014849;28;19929;-72
2023/12/08 22:26:15;;;;;;;;;;;;;;;;;;5014420;28;20287;-72
2023/12/08 22:28:42;;;;;;;;;;;;;;;;;;5014653;28;20457;-72
2023/12/08 22:31:10;;;;;;;;;;;;;;;;;;5015385;28;19925;-72
2023/12/08 22:33:39;;;;;;;;;;;;;;;;;;5014783;28;19965;-72
2023/12/08 22:36:06;;;;;;;;;;;;;;;;;;5014356;28;20390;-72
2023/12/08 22:38:33;;;;;;;;;;;;;;;;;;5014869;28;19925;-71
2023/12/08 22:40:59;;;;;;;;;;;;;;;;;;5014990;28;19932;-71
2023/12/08 22:43:26;;;;;;;;;;;;;;;;;;5014797;28;19945;-72
2023/12/08 22:45:53;;;;;;;;;;;;;;;;;;5014012;28;19925;-71
2023/12/08 22:48:20;;;;;;;;;;;;;;;;;;5014318;28;19933;-71
2023/12/08 22:50:47;;;;;;;;;;;;;;;;;;5014042;28;20383;-71
2023/12/08 22:53:14;;;;;;;;;;;;;;;;;;5014201;28;19925;-72
2023/12/08 22:55:41;;;;;;;;;;;;;;;;;;5014014;28;20383;-71
2023/12/08 22:58:08;;;;;;;;;;;;;;;;;;5014772;28;19932;-72
2023/12/08 23:00:35;;;;;;;;;;;;;;;;;;5014650;28;20038;-73
2023/12/08 23:03:02;;;;;;;;;;;;;;;;;;5014612;28;19929;-71
